Time;durP1;ratioP1;P1;durP2;ratioP2;P2;SDS_P1;SDS_P2;PMS_P1;PMS_P2;Temp;Humidity;BMP_temperature;BMP_pressure;BME280_temperature;BME280_humidity;BME280_pressure;Samples;Min_cycle;Max_cycle;Signal;HPM_P1;HPM_P2
2023/03/17 00:00:34;;;;;;;9.75;4.97;;;5.50;99.90;;;;;;5056182;28;20045;-67
2023/03/17 00:03:00;;;;;;;11.10;5.38;;;5.50;99.90;;;;;;5065233;28;20487;-74
2023/03/17 00:05:32;;;;;;;10.45;4.90;;;5.50;99.90;;;;;;5057700;28;20024;-75
2023/03/17 00:08:03;;;;;;;13.57;5.68;;;5.50;99.90;;;;;;5053609;28;20770;-74
2023/03/17 00:10:28;;;;;;;15.23;6.13;;;5.50;99.90;;;;;;5051812;28;20098;-71
2023/03/17 00:12:54;;;;;;;10.68;5.22;;;5.50;99.90;;;;;;5063535;28;20159;-74
2023/03/17 00:15:25;;;;;;;10.45;5.18;;;5.40;99.90;;;;;;5050343;28;20025;-74
2023/03/17 00:17:53;;;;;;;15.05;5.78;;;5.40;99.90;;;;;;5035008;28;20068;-68
2023/03/17 00:20:31;;;;;;;10.63;5.15;;;5.40;99.90;;;;;;5057803;28;20106;-74
2023/03/17 00:22:59;;;;;;;13.02;5.82;;;5.30;99.90;;;;;;5057596;28;20102;-75
2023/03/17 00:25:28;;;;;;;11.77;5.65;;;5.30;99.90;;;;;;5054012;28;20468;-75
2023/03/17 00:27:55;;;;;;;9.98;5.15;;;5.30;99.90;;;;;;5057862;28;20087;-73
2023/03/17 00:30:22;;;;;;;13.27;5.68;;;5.30;99.90;;;;;;5054505;28;20090;-72
2023/03/17 00:32:50;;;;;;;12.13;5.05;;;5.30;99.90;;;;;;5054608;28;20040;-73
2023/03/17 00:35:21;;;;;;;15.52;5.78;;;5.30;99.90;;;;;;5063280;28;20024;-74
2023/03/17 00:37:48;;;;;;;9.98;5.32;;;5.30;99.90;;;;;;5059476;28;20128;-74
2023/03/17 00:40:16;;;;;;;12.25;5.63;;;5.30;99.90;;;;;;5051376;28;20473;-69
2023/03/17 00:42:42;;;;;;;12.35;5.45;;;5.20;99.90;;;;;;5063881;28;20025;-74
2023/03/17 00:45:09;;;;;;;11.80;5.63;;;5.20;99.90;;;;;;5065358;28;20032;-73
2023/03/17 00:47:35;;;;;;;13.50;5.60;;;5.20;99.90;;;;;;5063585;28;20028;-75
2023/03/17 00:50:00;;;;;;;12.15;5.35;;;5.20;99.90;;;;;;5061848;28;20033;-75
2023/03/17 00:52:26;;;;;;;12.82;5.70;;;5.20;99.90;;;;;;5056793;28;20025;-73
2023/03/17 00:54:52;;;;;;;11.68;5.80;;;5.30;99.90;;;;;;5040173;28;20033;-75
2023/03/17 00:57:18;;;;;;;12.00;5.70;;;5.30;99.90;;;;;;5044007;28;20071;-74
2023/03/17 00:59:43;;;;;;;15.50;6.18;;;5.30;99.90;;;;;;5048030;28;20037;-71
2023/03/17 01:02:12;;;;;;;13.45;5.82;;;5.20;99.90;;;;;;5054362;28;20034;-73
2023/03/17 01:04:39;;;;;;;13.48;5.90;;;5.20;99.90;;;;;;5065655;28;20032;-67
2023/03/17 01:07:05;;;;;;;12.27;6.30;;;5.20;99.90;;;;;;5060790;28;20033;-75
2023/03/17 01:09:32;;;;;;;13.20;5.90;;;5.20;99.90;;;;;;5057611;28;20024;-74
2023/03/17 01:11:58;;;;;;;12.73;5.97;;;5.20;99.90;;;;;;5051873;28;20093;-74
2023/03/17 01:14:24;;;;;;;12.38;5.60;;;5.20;99.90;;;;;;5055157;28;20056;-74
2023/03/17 01:16:51;;;;;;;11.07;5.60;;;5.20;99.90;;;;;;5055448;28;20104;-70
2023/03/17 01:19:18;;;;;;;12.73;5.88;;;5.20;99.90;;;;;;5042550;28;20025;-74
2023/03/17 01:21:44;;;;;;;11.15;5.50;;;5.20;99.90;;;;;;5048842;28;20120;-69
2023/03/17 01:24:10;;;;;;;12.70;5.72;;;5.20;99.90;;;;;;5053040;28;20053;-74
2023/03/17 01:26:36;;;;;;;11.65;5.60;;;5.10;99.90;;;;;;5058039;28;20510;-75
2023/03/17 01:29:03;;;;;;;11.27;5.38;;;5.10;99.90;;;;;;5048610;28;20654;-75
2023/03/17 01:31:29;;;;;;;13.27;5.97;;;5.10;99.90;;;;;;5052803;28;20047;-74
2023/03/17 01:33:55;;;;;;;11.20;5.82;;;5.10;99.90;;;;;;5053023;28;20029;-76
2023/03/17 01:36:20;;;;;;;14.55;5.75;;;5.10;99.90;;;;;;5058339;28;20028;-75
2023/03/17 01:38:49;;;;;;;12.60;6.20;;;5.10;99.90;;;;;;5060752;28;20024;-75
2023/03/17 01:41:19;;;;;;;11.23;5.80;;;5.00;99.90;;;;;;5056691;28;20083;-74
2023/03/17 01:43:45;;;;;;;13.03;5.73;;;5.00;99.90;;;;;;5049142;28;20052;-74
2023/03/17 01:46:13;;;;;;;14.75;6.13;;;4.90;99.90;;;;;;5055102;28;20061;-73
2023/03/17 01:48:45;;;;;;;15.00;6.28;;;4.90;99.90;;;;;;5067476;28;20028;-75
2023/03/17 01:51:26;;;;;;;13.60;5.80;;;4.90;99.90;;;;;;5052526;28;20051;-74
2023/03/17 01:53:53;;;;;;;14.60;6.30;;;4.90;99.90;;;;;;5058291;28;20349;-75
2023/03/17 01:56:19;;;;;;;16.27;7.35;;;4.90;99.90;;;;;;5065593;28;20055;-71
2023/03/17 01:58:47;;;;;;;11.63;5.68;;;5.00;99.90;;;;;;5048303;28;20025;-67
2023/03/17 02:01:12;;;;;;;16.23;5.95;;;5.00;99.90;;;;;;5048929;28;20468;-73
2023/03/17 02:03:39;;;;;;;14.10;6.68;;;5.00;99.90;;;;;;5058906;28;20064;-73
2023/03/17 02:06:06;;;;;;;15.10;6.35;;;5.00;99.90;;;;;;5063670;28;20029;-74
2023/03/17 02:08:31;;;;;;;12.52;6.20;;;4.90;99.90;;;;;;5062487;28;20058;-75
2023/03/17 02:10:58;;;;;;;14.63;7.07;;;5.00;99.90;;;;;;5057331;28;20040;-74
2023/03/17 02:13:23;;;;;;;15.95;6.55;;;5.00;99.90;;;;;;5049104;28;20054;-72
2023/03/17 02:15:51;;;;;;;13.52;6.57;;;5.00;99.90;;;;;;5039331;28;20051;-67
2023/03/17 02:18:20;;;;;;;17.30;6.72;;;5.00;99.90;;;;;;5047840;28;20032;-74
2023/03/17 02:20:46;;;;;;;16.20;6.25;;;5.00;99.90;;;;;;5057026;28;20086;-67
2023/03/17 02:23:15;;;;;;;14.60;6.10;;;5.00;99.90;;;;;;5054282;28;20037;-74
2023/03/17 02:25:44;;;;;;;13.80;6.25;;;5.00;99.90;;;;;;5047238;28;20028;-72
2023/03/17 02:28:15;;;;;;;15.65;6.55;;;5.00;99.90;;;;;;5058754;28;20035;-74
2023/03/17 02:30:41;;;;;;;15.55;6.28;;;5.10;99.90;;;;;;5056451;28;20108;-75
2023/03/17 02:33:11;;;;;;;11.75;6.22;;;5.10;99.90;;;;;;5051837;28;20044;-74
2023/03/17 02:35:37;;;;;;;14.05;6.57;;;5.00;99.90;;;;;;5062618;28;20051;-75
2023/03/17 02:38:03;;;;;;;13.88;6.28;;;5.00;99.90;;;;;;5054094;28;20063;-74
2023/03/17 02:40:29;;;;;;;16.42;6.85;;;5.00;99.90;;;;;;5052455;28;20080;-74
2023/03/17 02:42:55;;;;;;;16.58;7.15;;;5.00;99.90;;;;;;5055997;28;20063;-75
2023/03/17 02:45:21;;;;;;;15.93;6.35;;;4.90;99.90;;;;;;5056307;28;20013;-73
2023/03/17 02:47:48;;;;;;;14.13;6.80;;;4.90;99.90;;;;;;5051107;28;20042;-67
2023/03/17 02:50:21;;;;;;;14.32;6.45;;;4.90;99.90;;;;;;5047842;28;20055;-73
2023/03/17 02:52:47;;;;;;;15.73;6.40;;;4.90;99.90;;;;;;5052636;28;20756;-67
2023/03/17 02:55:13;;;;;;;16.50;7.40;;;4.90;99.90;;;;;;5064968;28;20074;-73
2023/03/17 02:57:39;;;;;;;15.52;6.93;;;4.90;99.90;;;;;;5047914;28;20066;-73
2023/03/17 03:00:09;;;;;;;17.48;6.88;;;4.90;99.90;;;;;;5054883;28;20036;-74
2023/03/17 03:02:36;;;;;;;15.73;6.40;;;4.90;99.90;;;;;;5036464;28;20033;-75
2023/03/17 03:05:02;;;;;;;12.48;6.45;;;4.90;99.90;;;;;;5058705;28;20111;-74
2023/03/17 03:07:28;;;;;;;13.60;6.95;;;4.90;99.90;;;;;;5062285;28;20021;-73
2023/03/17 03:09:53;;;;;;;15.02;6.82;;;4.80;99.90;;;;;;5054935;28;20499;-71
2023/03/17 03:12:19;;;;;;;13.00;6.40;;;4.80;99.90;;;;;;5043370;28;20017;-75
2023/03/17 03:14:45;;;;;;;16.45;6.93;;;4.80;99.90;;;;;;5034803;28;20029;-67
2023/03/17 03:17:10;;;;;;;15.77;6.63;;;4.80;99.90;;;;;;5056346;28;20021;-75
2023/03/17 03:19:37;;;;;;;16.45;7.13;;;4.80;99.90;;;;;;5051303;28;20060;-74
2023/03/17 03:22:03;;;;;;;13.93;7.10;;;4.80;99.90;;;;;;5058229;28;20544;-74
2023/03/17 03:24:28;;;;;;;14.98;6.78;;;4.80;99.90;;;;;;5050894;28;20033;-72
2023/03/17 03:26:54;;;;;;;16.67;6.90;;;4.80;99.90;;;;;;5052918;28;20148;-72
2023/03/17 03:29:20;;;;;;;16.10;7.38;;;4.80;99.90;;;;;;5047109;28;20021;-74
2023/03/17 03:31:47;;;;;;;15.07;6.97;;;4.80;99.90;;;;;;5031989;28;20430;-70
2023/03/17 03:34:14;;;;;;;14.77;7.30;;;4.70;99.90;;;;;;5050479;28;20052;-72
2023/03/17 03:36:40;;;;;;;14.80;6.72;;;4.70;99.90;;;;;;5056873;28;20029;-73
2023/03/17 03:39:07;;;;;;;17.45;7.15;;;4.70;99.90;;;;;;5051063;28;20067;-75
2023/03/17 03:41:33;;;;;;;18.38;7.75;;;4.70;99.90;;;;;;5059388;28;20041;-73
2023/03/17 03:43:59;;;;;;;18.23;8.40;;;4.60;99.90;;;;;;5054674;28;20029;-71
2023/03/17 03:46:25;;;;;;;14.77;7.10;;;4.60;99.90;;;;;;5036300;28;20047;-74
2023/03/17 03:48:51;;;;;;;15.02;7.32;;;4.60;99.90;;;;;;5053687;28;20025;-67
2023/03/17 03:51:16;;;;;;;16.65;7.68;;;4.60;99.90;;;;;;5050877;28;20036;-72
2023/03/17 03:53:42;;;;;;;16.13;7.72;;;4.60;99.90;;;;;;5059257;28;20836;-72
2023/03/17 03:56:08;;;;;;;19.98;7.50;;;4.60;99.90;;;;;;5061251;28;20677;-70
2023/03/17 03:58:33;;;;;;;15.80;6.72;;;4.60;99.90;;;;;;5049830;28;20033;-67
2023/03/17 04:01:03;;;;;;;16.20;7.28;;;4.60;99.90;;;;;;5052300;28;20684;-69
2023/03/17 04:03:29;;;;;;;16.57;7.50;;;4.50;99.90;;;;;;5062084;28;20115;-68
2023/03/17 04:05:54;;;;;;;16.40;7.13;;;4.60;99.90;;;;;;5054878;28;20354;-70
2023/03/17 04:08:20;;;;;;;15.90;7.07;;;4.60;99.90;;;;;;5054214;28;20377;-69
2023/03/17 04:10:46;;;;;;;15.68;7.95;;;4.70;99.90;;;;;;5053101;28;20033;-69
2023/03/17 04:13:13;;;;;;;14.13;6.75;;;4.70;99.90;;;;;;5064237;28;20036;-69
2023/03/17 04:15:38;;;;;;;15.10;7.15;;;4.70;99.90;;;;;;5046952;28;20541;-67
2023/03/17 04:18:04;;;;;;;17.90;7.28;;;4.70;99.90;;;;;;5062792;28;20025;-72
2023/03/17 04:20:30;;;;;;;17.48;7.82;;;4.70;99.90;;;;;;5057155;28;20080;-68
2023/03/17 04:22:55;;;;;;;17.63;7.53;;;4.70;99.90;;;;;;5065933;28;20438;-70
2023/03/17 04:25:21;;;;;;;17.85;7.05;;;4.60;99.90;;;;;;5053361;28;20058;-69
2023/03/17 04:27:47;;;;;;;16.92;7.05;;;4.60;99.90;;;;;;5058364;28;20139;-70
2023/03/17 04:30:13;;;;;;;18.40;8.30;;;4.50;99.90;;;;;;5066214;28;20110;-70
2023/03/17 04:32:39;;;;;;;20.40;8.13;;;4.50;99.90;;;;;;5057544;28;20044;-69
2023/03/17 04:35:09;;;;;;;21.38;9.18;;;4.40;99.90;;;;;;5049716;28;20025;-70
2023/03/17 04:37:35;;;;;;;19.15;8.98;;;4.40;99.90;;;;;;5052080;28;20114;-70
2023/03/17 04:40:01;;;;;;;18.50;8.00;;;4.40;99.90;;;;;;5061742;28;20116;-68
2023/03/17 04:42:26;;;;;;;15.75;6.70;;;4.40;99.90;;;;;;5052099;28;20029;-70
2023/03/17 04:44:52;;;;;;;14.50;6.85;;;4.40;99.90;;;;;;5061035;28;20040;-64
2023/03/17 04:47:18;;;;;;;14.40;6.63;;;4.40;99.90;;;;;;5060652;28;20036;-68
2023/03/17 04:49:43;;;;;;;15.73;7.32;;;4.40;99.90;;;;;;5060577;28;20427;-67
2023/03/17 04:52:09;;;;;;;15.70;6.38;;;4.40;99.90;;;;;;5057987;28;20401;-70
2023/03/17 04:54:35;;;;;;;16.85;6.80;;;4.40;99.90;;;;;;5059692;28;20036;-70
2023/03/17 04:57:01;;;;;;;12.85;6.40;;;4.40;99.90;;;;;;5068535;28;20492;-69
2023/03/17 04:59:27;;;;;;;12.20;6.05;;;4.40;99.90;;;;;;5060944;28;20030;-71
2023/03/17 05:01:52;;;;;;;12.70;6.15;;;4.40;99.90;;;;;;5055352;28;20120;-64
2023/03/17 05:04:18;;;;;;;18.45;7.18;;;4.40;99.90;;;;;;5049607;28;20037;-70
2023/03/17 05:06:44;;;;;;;17.30;7.22;;;4.40;99.90;;;;;;5058166;28;20116;-70
2023/03/17 05:09:10;;;;;;;15.35;7.03;;;4.40;99.90;;;;;;5062440;28;20029;-69
2023/03/17 05:11:36;;;;;;;13.32;6.85;;;4.30;99.90;;;;;;5051067;28;20087;-70
2023/03/17 05:14:01;;;;;;;14.18;6.53;;;4.20;99.90;;;;;;5053001;28;20419;-69
2023/03/17 05:16:27;;;;;;;15.23;6.38;;;3.90;99.90;;;;;;5053215;28;20029;-71
2023/03/17 05:18:54;;;;;;;16.95;7.15;;;3.80;99.90;;;;;;5060201;28;20033;-65
2023/03/17 05:21:19;;;;;;;13.77;6.60;;;3.70;99.90;;;;;;5057370;28;20049;-68
2023/03/17 05:23:45;;;;;;;14.77;6.55;;;3.80;99.90;;;;;;5066436;28;20146;-70
2023/03/17 05:26:11;;;;;;;16.42;6.82;;;3.80;99.90;;;;;;5054317;28;20417;-70
2023/03/17 05:28:37;;;;;;;12.65;6.07;;;3.80;99.90;;;;;;5049568;28;20033;-69
2023/03/17 05:31:04;;;;;;;14.82;6.53;;;3.90;99.90;;;;;;5059972;28;20114;-68
2023/03/17 05:33:29;;;;;;;17.95;7.30;;;3.90;99.90;;;;;;5060469;28;20048;-69
2023/03/17 05:35:56;;;;;;;18.15;7.38;;;3.90;99.90;;;;;;5051558;28;20064;-63
2023/03/17 05:38:22;;;;;;;15.18;7.78;;;3.90;99.90;;;;;;5054876;28;20067;-70
2023/03/17 05:40:51;;;;;;;35.38;12.07;;;3.90;99.90;;;;;;5056926;28;20045;-70
2023/03/17 05:43:17;;;;;;;20.65;8.77;;;3.90;99.90;;;;;;5053660;28;20687;-70
2023/03/17 05:45:43;;;;;;;20.05;8.25;;;3.90;99.90;;;;;;5067885;28;20047;-68
2023/03/17 05:48:11;;;;;;;16.98;8.00;;;3.70;99.90;;;;;;5064156;28;20035;-69
2023/03/17 05:50:36;;;;;;;16.10;7.10;;;3.50;99.90;;;;;;5055130;28;20039;-70
2023/03/17 05:53:02;;;;;;;17.23;7.15;;;3.50;99.90;;;;;;5057328;28;20029;-70
2023/03/17 05:55:28;;;;;;;16.50;7.00;;;3.60;99.90;;;;;;5062245;28;20029;-69
2023/03/17 05:57:53;;;;;;;16.08;7.57;;;3.70;99.90;;;;;;5055977;28;20052;-67
2023/03/17 06:00:20;;;;;;;17.35;6.95;;;3.60;99.90;;;;;;5067388;28;20063;-70
2023/03/17 06:02:46;;;;;;;14.48;7.05;;;3.60;99.90;;;;;;5059745;28;20477;-70
2023/03/17 06:05:12;;;;;;;16.33;7.57;;;3.60;99.90;;;;;;5065190;28;20036;-69
2023/03/17 06:07:38;;;;;;;17.10;7.65;;;3.60;99.90;;;;;;5056578;28;20061;-70
2023/03/17 06:10:05;;;;;;;18.60;8.13;;;3.70;99.90;;;;;;5055384;28;20033;-67
2023/03/17 06:12:31;;;;;;;20.25;9.55;;;3.80;99.90;;;;;;5059151;28;20469;-69
2023/03/17 06:14:57;;;;;;;25.58;9.30;;;3.60;99.90;;;;;;5068050;28;20177;-64
2023/03/17 06:17:23;;;;;;;23.13;10.27;;;3.40;99.90;;;;;;5059349;28;20532;-70
2023/03/17 06:19:48;;;;;;;25.42;10.02;;;3.30;99.90;;;;;;5061940;28;20409;-67
2023/03/17 06:22:14;;;;;;;28.52;11.45;;;3.20;99.90;;;;;;5056763;28;20493;-69
2023/03/17 06:24:40;;;;;;;19.23;8.10;;;3.20;99.90;;;;;;5060037;28;20063;-69
2023/03/17 06:27:05;;;;;;;18.92;8.15;;;3.20;99.90;;;;;;5062267;28;20420;-70
2023/03/17 06:29:31;;;;;;;21.30;8.02;;;3.20;99.90;;;;;;5049824;28;20032;-69
2023/03/17 06:31:57;;;;;;;18.65;8.25;;;3.30;99.90;;;;;;5060389;28;20445;-64
2023/03/17 06:34:23;;;;;;;19.30;8.27;;;3.20;99.90;;;;;;5056158;28;20553;-68
2023/03/17 06:36:49;;;;;;;18.98;8.07;;;3.30;99.90;;;;;;5053767;28;20067;-69
2023/03/17 06:39:16;;;;;;;17.13;8.15;;;3.50;99.90;;;;;;5058501;28;20148;-70
2023/03/17 06:41:42;;;;;;;21.02;9.30;;;3.80;99.90;;;;;;5052133;28;20036;-68
2023/03/17 06:44:08;;;;;;;20.25;8.75;;;4.10;99.90;;;;;;5067489;28;20833;-70
2023/03/17 06:46:34;;;;;;;25.63;9.07;;;4.30;99.90;;;;;;5056422;28;20043;-70
2023/03/17 06:49:02;;;;;;;21.55;7.70;;;4.60;99.90;;;;;;5055870;28;20036;-64
2023/03/17 06:51:28;;;;;;;19.58;8.90;;;4.90;99.90;;;;;;5057564;28;20040;-70
2023/03/17 06:53:53;;;;;;;18.85;7.85;;;5.10;99.90;;;;;;5059271;28;20040;-67
2023/03/17 06:56:20;;;;;;;20.25;8.30;;;5.30;99.90;;;;;;5049972;28;20021;-69
2023/03/17 06:58:45;;;;;;;17.83;7.50;;;5.40;99.90;;;;;;5056213;28;20077;-70
2023/03/17 07:01:13;;;;;;;18.77;7.80;;;5.50;99.90;;;;;;5062249;28;20032;-69
2023/03/17 07:03:39;;;;;;;18.42;8.15;;;5.60;99.90;;;;;;5061866;28;20082;-68
2023/03/17 07:06:05;;;;;;;17.30;7.22;;;5.80;99.90;;;;;;5065119;28;20408;-70
2023/03/17 07:08:30;;;;;;;16.13;7.50;;;5.90;99.90;;;;;;5060003;28;20025;-70
2023/03/17 07:10:57;;;;;;;18.30;8.00;;;6.00;99.90;;;;;;5058384;28;20460;-70
2023/03/17 07:13:23;;;;;;;19.92;8.40;;;6.00;99.90;;;;;;5062824;28;20789;-69
2023/03/17 07:15:49;;;;;;;19.65;8.80;;;6.10;99.90;;;;;;5061818;28;20114;-69
2023/03/17 07:18:15;;;;;;;20.20;9.00;;;6.10;99.90;;;;;;5064266;28;20056;-69
2023/03/17 07:20:42;;;;;;;20.33;8.73;;;6.20;99.90;;;;;;5057608;28;20127;-69
2023/03/17 07:23:14;;;;;;;20.77;8.90;;;6.30;99.90;;;;;;5065973;28;20513;-69
2023/03/17 07:25:42;;;;;;;20.25;8.70;;;6.30;99.90;;;;;;5052221;28;20029;-69
2023/03/17 07:28:08;;;;;;;20.65;9.02;;;6.30;99.90;;;;;;5061805;28;20113;-69
2023/03/17 07:30:34;;;;;;;18.77;8.27;;;6.40;99.90;;;;;;5055077;28;20033;-69
2023/03/17 07:33:00;;;;;;;21.88;8.60;;;6.50;99.90;;;;;;5067437;28;20492;-69
2023/03/17 07:35:27;;;;;;;18.25;9.40;;;6.60;99.90;;;;;;5058919;28;20404;-70
2023/03/17 07:37:53;;;;;;;17.45;7.75;;;6.80;99.90;;;;;;5062703;28;20106;-68
2023/03/17 07:40:20;;;;;;;19.90;8.65;;;7.00;99.90;;;;;;5056803;28;20068;-68
2023/03/17 07:42:45;;;;;;;17.42;8.13;;;7.10;99.90;;;;;;5067713;28;20103;-70
2023/03/17 07:45:11;;;;;;;18.77;8.38;;;7.30;99.90;;;;;;5058446;28;20151;-69
2023/03/17 07:47:38;;;;;;;16.85;7.95;;;7.50;99.90;;;;;;5066529;28;20094;-70
2023/03/17 07:50:04;;;;;;;18.58;8.30;;;7.60;99.90;;;;;;5056800;28;20132;-64
2023/03/17 07:52:30;;;;;;;14.25;7.50;;;7.80;99.90;;;;;;5058766;28;20074;-70
2023/03/17 07:54:57;;;;;;;14.98;7.72;;;8.10;99.90;;;;;;5068721;28;20033;-70
2023/03/17 07:57:23;;;;;;;14.32;7.25;;;8.30;99.90;;;;;;5054723;28;20060;-70
2023/03/17 07:59:49;;;;;;;15.30;7.43;;;8.50;99.90;;;;;;5062338;28;20036;-68
2023/03/17 08:02:15;;;;;;;16.33;7.50;;;8.70;99.90;;;;;;5047851;28;20496;-70
2023/03/17 08:04:42;;;;;;;14.20;7.32;;;8.80;99.90;;;;;;5057473;28;20023;-68
2023/03/17 08:07:07;;;;;;;22.23;7.13;;;8.90;99.90;;;;;;5050918;28;20250;-69
2023/03/17 08:09:33;;;;;;;14.50;6.80;;;8.90;99.90;;;;;;5061905;28;20127;-69
2023/03/17 08:11:58;;;;;;;17.33;6.90;;;9.10;99.90;;;;;;5061680;28;20473;-68
2023/03/17 08:14:25;;;;;;;15.07;6.50;;;9.20;99.90;;;;;;5061915;28;20020;-69
2023/03/17 08:16:51;;;;;;;11.30;6.70;;;9.30;99.90;;;;;;5062000;28;20378;-69
2023/03/17 08:19:17;;;;;;;15.43;6.65;;;9.40;99.90;;;;;;5058215;28;20044;-69
2023/03/17 08:21:42;;;;;;;18.52;6.88;;;9.40;99.90;;;;;;5056275;28;20053;-69
2023/03/17 08:24:08;;;;;;;18.58;6.43;;;9.50;99.90;;;;;;5065745;28;20393;-69
2023/03/17 08:26:35;;;;;;;17.90;6.97;;;9.50;99.90;;;;;;5051711;28;20037;-69
2023/03/17 08:29:00;;;;;;;13.95;6.95;;;9.60;99.90;;;;;;5050461;28;20029;-70
2023/03/17 08:31:26;;;;;;;18.75;6.35;;;9.70;99.90;;;;;;5059857;28;20184;-69
2023/03/17 08:33:53;;;;;;;17.52;6.97;;;9.70;99.90;;;;;;5064057;28;20047;-70
2023/03/17 08:36:20;;;;;;;16.35;5.93;;;9.70;99.90;;;;;;5058354;28;20054;-68
2023/03/17 08:38:47;;;;;;;17.15;6.40;;;9.70;99.90;;;;;;5061236;28;20594;-70
2023/03/17 08:41:15;;;;;;;16.08;6.43;;;9.80;99.90;;;;;;5068188;28;20158;-68
2023/03/17 08:43:42;;;;;;;14.90;6.20;;;9.80;99.90;;;;;;5046978;28;20020;-69
2023/03/17 08:46:29;;;;;;;11.50;5.93;;;9.90;99.90;;;;;;5053350;28;20032;-64
2023/03/17 08:48:57;;;;;;;15.43;6.18;;;10.00;99.90;;;;;;5052474;28;20033;-70
2023/03/17 08:51:27;;;;;;;15.20;5.63;;;10.10;99.90;;;;;;5048222;28;20067;-70
2023/03/17 08:53:54;;;;;;;8.10;4.57;;;10.30;99.90;;;;;;5054923;28;20024;-69
2023/03/17 08:56:20;;;;;;;12.00;5.47;;;10.60;99.90;;;;;;5060555;28;20107;-69
2023/03/17 08:58:47;;;;;;;11.38;4.85;;;10.80;99.90;;;;;;5057843;28;20029;-69
2023/03/17 09:01:14;;;;;;;9.00;4.47;;;10.90;99.90;;;;;;5049127;28;20404;-69
2023/03/17 09:03:40;;;;;;;10.60;4.50;;;11.20;99.90;;;;;;5050015;28;20028;-69
2023/03/17 09:06:10;;;;;;;11.23;4.72;;;11.40;99.90;;;;;;5056950;28;20441;-64
2023/03/17 09:08:39;;;;;;;8.23;3.95;;;11.50;99.90;;;;;;5057605;28;20032;-70
2023/03/17 09:11:06;;;;;;;7.63;4.18;;;11.70;99.90;;;;;;5055004;28;20024;-69
2023/03/17 09:13:36;;;;;;;9.70;4.15;;;11.90;99.90;;;;;;5059741;28;20024;-69
2023/03/17 09:16:02;;;;;;;6.38;3.70;;;12.10;99.90;;;;;;5069042;28;20094;-70
2023/03/17 09:18:30;;;;;;;8.32;3.90;;;12.30;99.90;;;;;;5059303;28;20021;-69
2023/03/17 09:20:56;;;;;;;8.45;3.40;;;12.50;99.90;;;;;;5058403;28;20093;-70
2023/03/17 09:23:22;;;;;;;6.88;3.67;;;12.60;99.90;;;;;;5048732;28;20036;-69
2023/03/17 09:25:48;;;;;;;7.05;2.90;;;12.80;99.90;;;;;;5051187;28;20055;-70
2023/03/17 09:28:14;;;;;;;7.43;3.50;;;13.10;99.90;;;;;;5054332;28;20100;-69
2023/03/17 09:30:41;;;;;;;6.00;2.85;;;13.20;99.40;;;;;;5065255;28;20063;-70
2023/03/17 09:33:10;;;;;;;6.53;3.05;;;13.40;98.00;;;;;;5060548;28;20441;-70
2023/03/17 09:35:37;;;;;;;6.10;3.08;;;13.50;98.00;;;;;;5052203;28;20036;-68
2023/03/17 09:38:02;;;;;;;5.50;2.70;;;13.70;98.10;;;;;;5048804;28;20029;-69
2023/03/17 09:40:36;;;;;;;6.80;2.47;;;13.90;97.10;;;;;;5055281;28;20043;-68
2023/03/17 09:43:35;;;;;;;6.35;2.70;;;14.00;95.80;;;;;;5053010;28;20051;-69
2023/03/17 09:46:16;;;;;;;7.07;2.53;;;14.30;95.20;;;;;;5052841;28;20094;-69
2023/03/17 09:49:06;;;;;;;4.15;2.60;;;14.30;94.20;;;;;;5068492;28;20320;-70
2023/03/17 09:51:34;;;;;;;4.20;2.22;;;14.60;94.90;;;;;;5047330;28;20127;-69
2023/03/17 09:54:10;;;;;;;6.97;2.30;;;14.80;92.80;;;;;;5066417;28;20401;-68
2023/03/17 09:56:37;;;;;;;7.05;2.55;;;15.00;92.60;;;;;;5052987;28;20182;-70
2023/03/17 09:59:26;;;;;;;3.72;2.30;;;15.20;92.60;;;;;;5066324;28;20029;-69
2023/03/17 10:01:51;;;;;;;6.57;2.60;;;15.40;93.30;;;;;;5067918;28;20042;-68
2023/03/17 10:04:17;;;;;;;3.65;1.90;;;15.50;90.90;;;;;;5044477;28;20036;-70
2023/03/17 10:06:45;;;;;;;4.28;1.58;;;15.60;90.80;;;;;;5048927;28;20069;-69
2023/03/17 10:09:39;;;;;;;4.47;1.90;;;15.60;86.50;;;;;;5048442;28;20598;-65
2023/03/17 10:12:44;;;;;;;3.55;2.00;;;15.60;85.80;;;;;;5056673;28;20052;-69
2023/03/17 10:15:24;;;;;;;3.95;1.98;;;15.70;82.20;;;;;;5056695;28;20103;-66
2023/03/17 10:17:51;;;;;;;5.43;1.85;;;15.60;83.80;;;;;;5055832;28;20029;-70
2023/03/17 10:20:29;;;;;;;4.63;1.60;;;15.90;85.60;;;;;;5048483;28;20140;-69
2023/03/17 10:22:59;;;;;;;5.03;1.48;;;16.00;83.50;;;;;;5056565;28;20514;-69
2023/03/17 10:25:31;;;;;;;6.95;1.88;;;16.20;80.30;;;;;;5058952;28;20056;-70
2023/03/17 10:28:23;;;;;;;3.90;1.83;;;16.30;79.60;;;;;;5067541;28;20036;-69
2023/03/17 10:30:49;;;;;;;5.55;1.52;;;16.40;78.60;;;;;;5051112;28;20032;-68
2023/03/17 10:33:14;;;;;;;3.05;1.60;;;16.50;77.70;;;;;;5056561;28;20029;-65
2023/03/17 10:35:43;;;;;;;4.13;1.77;;;16.70;85.40;;;;;;5067378;28;20028;-69
2023/03/17 10:38:21;;;;;;;4.18;1.63;;;16.90;80.90;;;;;;5067956;28;20036;-69
2023/03/17 10:41:04;;;;;;;2.85;1.38;;;17.20;81.30;;;;;;5058645;28;20036;-69
2023/03/17 10:43:35;;;;;;;3.80;2.42;;;17.40;82.80;;;;;;5060303;28;20036;-68
2023/03/17 10:46:06;;;;;;;3.45;1.88;;;17.60;81.10;;;;;;5060165;28;20025;-69
2023/03/17 10:48:37;;;;;;;1.73;1.30;;;17.70;74.90;;;;;;5060832;28;20036;-69
2023/03/17 10:51:10;;;;;;;3.17;1.75;;;17.60;76.20;;;;;;5058161;28;20051;-69
2023/03/17 10:53:42;;;;;;;4.47;1.40;;;17.90;80.50;;;;;;5067292;28;20282;-70
2023/03/17 10:56:19;;;;;;;2.45;1.30;;;18.20;75.70;;;;;;5052356;28;20033;-68
2023/03/17 10:58:48;;;;;;;2.45;1.35;;;18.20;76.40;;;;;;5044186;28;20075;-69
2023/03/17 11:01:38;;;;;;;2.67;1.50;;;18.40;72.90;;;;;;5062589;28;20178;-66
2023/03/17 11:04:34;;;;;;;3.40;1.58;;;18.40;70.00;;;;;;5065580;28;20073;-69
2023/03/17 11:07:11;;;;;;;2.65;1.70;;;18.70;73.00;;;;;;5044476;28;20529;-68
2023/03/17 11:09:37;;;;;;;3.05;1.25;;;18.90;67.30;;;;;;5059206;28;20104;-69
2023/03/17 11:12:27;;;;;;;3.90;1.40;;;18.80;63.00;;;;;;5059993;28;20025;-68
2023/03/17 11:15:02;;;;;;;2.20;1.23;;;18.90;64.60;;;;;;5044278;28;20029;-69
2023/03/17 11:17:40;;;;;;;2.13;1.10;;;19.20;67.60;;;;;;5059165;28;20032;-68
2023/03/17 11:20:26;;;;;;;2.83;1.10;;;19.60;65.60;;;;;;5062165;28;20048;-70
2023/03/17 11:23:22;;;;;;;1.98;0.98;;;19.70;59.40;;;;;;5055588;28;20029;-69
2023/03/17 11:26:00;;;;;;;4.50;1.20;;;19.80;57.80;;;;;;5061887;28;20032;-69
2023/03/17 11:28:36;;;;;;;2.15;0.90;;;19.80;59.10;;;;;;5062271;28;20115;-69
2023/03/17 11:31:21;;;;;;;4.85;1.08;;;19.90;58.60;;;;;;5051552;28;20389;-69
2023/03/17 11:34:18;;;;;;;3.92;0.80;;;20.00;55.20;;;;;;5059595;28;20032;-69
2023/03/17 11:36:44;;;;;;;3.30;1.00;;;20.00;58.00;;;;;;5059853;28;20041;-69
2023/03/17 11:39:15;;;;;;;2.28;1.27;;;19.70;58.50;;;;;;5064405;28;20050;-69
2023/03/17 11:42:05;;;;;;;1.90;0.90;;;19.60;58.50;;;;;;5069112;28;20060;-69
2023/03/17 11:44:57;;;;;;;1.92;1.15;;;19.50;58.60;;;;;;5051040;28;20048;-69
2023/03/17 11:47:23;;;;;;;2.40;1.13;;;19.90;60.90;;;;;;5052554;28;20040;-68
2023/03/17 11:50:00;;;;;;;2.22;1.00;;;20.00;59.30;;;;;;5057880;28;20056;-69
2023/03/17 11:52:52;;;;;;;2.58;1.23;;;19.90;56.60;;;;;;5054844;28;20165;-69
2023/03/17 11:55:27;;;;;;;1.80;0.98;;;19.80;55.90;;;;;;5069767;28;20170;-65
2023/03/17 11:58:01;;;;;;;2.60;1.33;;;19.70;57.30;;;;;;5061252;28;20442;-69
2023/03/17 12:00:35;;;;;;;2.08;1.00;;;19.70;56.40;;;;;;5063767;28;20036;-69
2023/03/17 12:03:22;;;;;;;2.33;1.10;;;19.80;55.30;;;;;;5059768;28;20453;-69
2023/03/17 12:05:53;;;;;;;2.67;1.00;;;20.00;54.80;;;;;;5056816;28;20037;-69
2023/03/17 12:08:30;;;;;;;2.60;1.05;;;20.20;56.60;;;;;;5043368;28;20029;-66
2023/03/17 12:10:59;;;;;;;1.75;0.95;;;20.30;57.40;;;;;;5067158;28;20095;-69
2023/03/17 12:13:45;;;;;;;1.70;0.90;;;20.30;56.50;;;;;;5058380;28;20031;-69
2023/03/17 12:16:21;;;;;;;1.40;0.95;;;20.00;55.40;;;;;;5060616;28;20469;-69
2023/03/17 12:19:15;;;;;;;2.22;1.02;;;20.10;57.10;;;;;;5061769;28;20040;-69
2023/03/17 12:22:16;;;;;;;3.42;1.30;;;20.30;58.20;;;;;;5044833;28;20049;-70
2023/03/17 12:24:54;;;;;;;1.77;0.98;;;20.60;60.40;;;;;;5052356;28;20490;-67
2023/03/17 12:27:30;;;;;;;1.88;1.00;;;20.80;56.60;;;;;;5059601;28;20020;-67
2023/03/17 12:30:11;;;;;;;1.48;0.90;;;20.80;55.00;;;;;;5055734;28;20082;-70
2023/03/17 12:32:43;;;;;;;1.52;0.70;;;20.60;53.30;;;;;;5055126;28;20029;-69
2023/03/17 12:35:37;;;;;;;1.67;0.90;;;20.70;53.20;;;;;;5050725;28;20029;-69
2023/03/17 12:38:15;;;;;;;1.80;0.93;;;20.80;53.50;;;;;;5060716;28;20031;-69
2023/03/17 12:41:08;;;;;;;3.58;0.82;;;20.80;52.10;;;;;;5061818;28;20510;-70
2023/03/17 12:43:40;;;;;;;1.85;0.85;;;20.80;50.00;;;;;;5041901;28;20477;-69
2023/03/17 12:46:19;;;;;;;2.47;1.02;;;20.80;50.20;;;;;;5054393;28;20024;-70
2023/03/17 12:48:59;;;;;;;5.63;1.10;;;20.80;50.90;;;;;;5048212;28;20480;-69
2023/03/17 12:52:12;;;;;;;2.13;1.17;;;20.40;53.20;;;;;;5045090;28;20036;-70
2023/03/17 12:54:43;;;;;;;1.35;0.80;;;20.10;53.40;;;;;;5003404;28;20048;-69
2023/03/17 12:57:26;;;;;;;2.30;1.00;;;20.30;54.70;;;;;;5055024;28;20025;-69